Time;durP1;ratioP1;P1;durP2;ratioP2;P2;SDS_P1;SDS_P2;PMS_P1;PMS_P2;Temp;Humidity;BMP_temperature;BMP_pressure;BME280_temperature;BME280_humidity;BME280_pressure;Samples;Min_cycle;Max_cycle;Signal;HPM_P1;HPM_P2
2021/12/16 00:08:03;;;;;;;;;;;6.40;95.10;;;;;;5037729;28;19911;-75
2021/12/16 00:10:36;;;;;;;;;;;6.40;95.10;;;;;;5036340;28;20279;-75
2021/12/16 00:32:36;;;;;;;;;;;6.40;95.40;;;;;;5041651;28;20376;-75
2021/12/16 00:35:03;;;;;;;;;;;6.40;95.70;;;;;;5031356;28;19916;-75
2021/12/16 00:37:28;;;;;;;;;;;6.40;95.40;;;;;;5028192;28;20257;-75
2021/12/16 00:39:54;;;;;;;;;;;6.40;95.50;;;;;;5041320;28;19968;-75
2021/12/16 00:47:55;;;;;;;;;;;6.30;95.50;;;;;;5041287;28;19912;-74
2021/12/16 00:55:49;;;;;;;;;;;6.40;95.50;;;;;;5041188;28;19912;-75
2021/12/16 00:58:18;;;;;;;;;;;6.40;95.60;;;;;;5040682;28;19944;-74
2021/12/16 01:00:52;;;;;;;;;;;6.40;95.60;;;;;;5041256;28;19912;-75
2021/12/16 01:03:30;;;;;;;;;;;6.40;95.60;;;;;;5040786;28;20051;-74
2021/12/16 01:09:03;;;;;;;;;;;6.40;95.70;;;;;;5040669;28;19976;-75
2021/12/16 01:36:53;;;;;;;;;;;6.40;95.80;;;;;;5036820;28;19932;-75
2021/12/16 01:50:05;;;;;;;;;;;6.40;95.90;;;;;;5040344;28;19932;-75
2021/12/16 01:55:16;;;;;;;;;;;6.40;96.00;;;;;;5040169;28;19909;-74
2021/12/16 01:57:48;;;;;;;;;;;6.40;96.00;;;;;;5028197;28;19905;-75
2021/12/16 02:00:25;;;;;;;;;;;6.40;96.00;;;;;;5038503;28;19961;-74
2021/12/16 02:02:56;;;;;;;;;;;6.40;96.00;;;;;;5038729;28;20425;-75
2021/12/16 02:05:40;;;;;;;;;;;6.40;96.10;;;;;;5039718;28;19912;-74
2021/12/16 02:10:41;;;;;;;;;;;6.40;96.00;;;;;;5039690;28;20352;-75
2021/12/16 02:13:30;;;;;;;;;;;6.40;96.10;;;;;;5039240;28;19916;-75
2021/12/16 02:34:59;;;;;;;;;;;6.40;96.20;;;;;;5026617;28;19909;-75
2021/12/16 02:37:29;;;;;;;;;;;6.50;96.30;;;;;;5026212;28;19905;-75
2021/12/16 02:39:55;;;;;;;;;;;6.50;96.30;;;;;;5038520;28;19996;-75
2021/12/16 02:42:23;;;;;;;;;;;6.50;96.30;;;;;;5038618;28;19955;-75
2021/12/16 02:50:05;;;;;;;;;;;6.50;96.50;;;;;;5039256;28;19916;-75
2021/12/16 02:52:31;;;;;;;;;;;6.50;96.50;;;;;;5038639;28;19905;-75
2021/12/16 02:54:57;;;;;;;;;;;6.50;96.50;;;;;;5038895;28;19909;-75
2021/12/16 02:57:24;;;;;;;;;;;6.50;96.50;;;;;;5038397;28;19905;-75
2021/12/16 02:59:52;;;;;;;;;;;6.50;96.50;;;;;;5039171;28;20280;-75
2021/12/16 03:02:18;;;;;;;;;;;6.50;96.50;;;;;;5038706;28;19912;-75
2021/12/16 03:04:46;;;;;;;;;;;6.60;96.50;;;;;;5038957;28;20000;-75
2021/12/16 03:07:14;;;;;;;;;;;6.60;96.60;;;;;;5026106;28;19905;-75
2021/12/16 03:14:59;;;;;;;;;;;6.50;96.50;;;;;;5038334;28;19915;-75
2021/12/16 03:22:40;;;;;;;;;;;6.50;96.60;;;;;;5038569;28;19905;-75
2021/12/16 03:25:15;;;;;;;;;;;6.60;96.60;;;;;;5026441;28;19906;-75
2021/12/16 03:36:06;;;;;;;;;;;6.60;96.60;;;;;;5036493;28;19905;-75
2021/12/16 03:38:35;;;;;;;;;;;6.60;96.60;;;;;;5028659;28;19956;-75
2021/12/16 03:41:02;;;;;;;;;;;6.60;96.60;;;;;;5037515;28;19917;-75
2021/12/16 03:43:29;;;;;;;;;;;6.60;96.60;;;;;;5037899;28;19905;-75
2021/12/16 03:48:41;;;;;;;;;;;6.60;96.60;;;;;;5037817;28;20055;-75
2021/12/16 03:51:10;;;;;;;;;;;6.60;96.60;;;;;;5037358;28;19905;-76
2021/12/16 03:53:36;;;;;;;;;;;6.60;96.60;;;;;;5037821;28;19935;-75
2021/12/16 03:56:03;;;;;;;;;;;6.60;96.60;;;;;;5037572;28;20342;-75
2021/12/16 03:58:28;;;;;;;;;;;6.60;96.50;;;;;;5037913;28;20352;-75
2021/12/16 04:00:57;;;;;;;;;;;6.60;96.50;;;;;;5036619;28;20007;-75
2021/12/16 04:03:23;;;;;;;;;;;6.60;96.50;;;;;;5037791;28;19905;-75
2021/12/16 04:05:48;;;;;;;;;;;6.60;96.60;;;;;;5037875;28;19912;-75
2021/12/16 04:08:15;;;;;;;;;;;6.60;96.60;;;;;;5037681;28;19909;-75
2021/12/16 04:10:47;;;;;;;;;;;6.60;96.60;;;;;;5037579;28;19992;-75
2021/12/16 04:13:15;;;;;;;;;;;6.60;96.60;;;;;;5037332;28;19959;-75
2021/12/16 04:15:41;;;;;;;;;;;6.60;96.60;;;;;;5037722;28;19951;-75
2021/12/16 04:18:06;;;;;;;;;;;6.60;96.60;;;;;;5037589;28;19909;-75
2021/12/16 04:20:32;;;;;;;;;;;6.60;96.60;;;;;;5037737;28;19905;-75
2021/12/16 04:22:59;;;;;;;;;;;6.60;96.50;;;;;;5037471;28;19911;-75
2021/12/16 04:25:27;;;;;;;;;;;6.60;96.50;;;;;;5037740;28;19936;-75
2021/12/16 04:27:55;;;;;;;;;;;6.60;96.60;;;;;;5037184;28;19905;-75
2021/12/16 04:30:22;;;;;;;;;;;6.60;96.60;;;;;;5037553;28;19905;-75
2021/12/16 04:32:48;;;;;;;;;;;6.60;96.60;;;;;;5037295;28;20286;-75
2021/12/16 04:35:14;;;;;;;;;;;6.60;96.60;;;;;;5037591;28;19908;-75
2021/12/16 04:37:39;;;;;;;;;;;6.60;96.60;;;;;;5024022;28;19959;-75
2021/12/16 04:40:08;;;;;;;;;;;6.70;96.60;;;;;;5037207;28;19920;-75
2021/12/16 04:42:36;;;;;;;;;;;6.70;96.60;;;;;;5037374;28;19905;-75
2021/12/16 04:45:02;;;;;;;;;;;6.70;96.60;;;;;;5034247;28;19932;-75
2021/12/16 04:47:30;;;;;;;;;;;6.70;96.50;;;;;;5037123;28;19932;-75
2021/12/16 04:49:55;;;;;;;;;;;6.70;96.60;;;;;;5037355;28;20454;-75
2021/12/16 04:52:21;;;;;;;;;;;6.70;96.50;;;;;;5037131;28;19932;-75
2021/12/16 04:54:47;;;;;;;;;;;6.70;96.50;;;;;;5037442;28;19915;-75
2021/12/16 04:57:14;;;;;;;;;;;6.70;96.50;;;;;;5036850;28;19905;-75
2021/12/16 04:59:40;;;;;;;;;;;6.70;96.50;;;;;;5037426;28;19927;-75
2021/12/16 05:02:14;;;;;;;;;;;6.70;96.50;;;;;;5037050;28;20416;-75
2021/12/16 05:04:41;;;;;;;;;;;6.70;96.60;;;;;;5041147;28;20386;-75
2021/12/16 05:07:07;;;;;;;;;;;6.70;96.50;;;;;;5040963;28;19905;-75
2021/12/16 05:12:15;;;;;;;;;;;6.70;96.50;;;;;;5028294;28;19905;-75
2021/12/16 05:14:42;;;;;;;;;;;6.70;96.50;;;;;;5040595;28;20357;-75
2021/12/16 05:17:20;;;;;;;;;;;6.70;96.50;;;;;;5040859;28;19928;-75
2021/12/16 05:19:50;;;;;;;;;;;6.70;96.50;;;;;;5040792;28;19909;-75
2021/12/16 05:25:00;;;;;;;;;;;6.70;96.50;;;;;;5040857;28;20395;-75
2021/12/16 05:27:25;;;;;;;;;;;6.70;96.50;;;;;;5040297;28;19908;-75
2021/12/16 05:29:51;;;;;;;;;;;6.70;96.50;;;;;;5040752;28;19930;-75
2021/12/16 05:32:17;;;;;;;;;;;6.70;96.50;;;;;;5040208;28;20422;-78
2021/12/16 05:34:43;;;;;;;;;;;6.70;96.50;;;;;;5040511;28;20291;-78
2021/12/16 05:37:08;;;;;;;;;;;6.70;96.50;;;;;;5036088;28;19905;-78
2021/12/16 05:39:34;;;;;;;;;;;6.70;96.80;;;;;;5048953;28;19929;-77
2021/12/16 05:42:00;;;;;;;;;;;6.70;96.50;;;;;;5032132;28;19917;-77
2021/12/16 05:44:26;;;;;;;;;;;6.70;96.50;;;;;;5036710;28;19909;-76
2021/12/16 05:46:52;;;;;;;;;;;6.70;96.50;;;;;;5040006;28;19955;-77
2021/12/16 05:49:18;;;;;;;;;;;6.70;96.50;;;;;;5038629;28;19908;-79
2021/12/16 05:51:45;;;;;;;;;;;6.70;96.50;;;;;;5039191;28;19991;-79
2021/12/16 05:54:11;;;;;;;;;;;6.70;96.60;;;;;;5039813;28;19915;-76
2021/12/16 05:56:37;;;;;;;;;;;6.80;96.60;;;;;;5038404;28;19905;-76
2021/12/16 05:59:04;;;;;;;;;;;6.80;96.60;;;;;;5039948;28;19905;-76
2021/12/16 06:01:31;;;;;;;;;;;6.80;96.60;;;;;;5039944;28;19955;-76
2021/12/16 06:03:57;;;;;;;;;;;6.80;96.60;;;;;;5039900;28;20378;-73
2021/12/16 06:06:23;;;;;;;;;;;6.80;96.60;;;;;;5039769;28;19905;-74
2021/12/16 06:08:49;;;;;;;;;;;6.80;96.60;;;;;;5039666;28;19931;-73
2021/12/16 06:11:21;;;;;;;;;;;6.80;96.60;;;;;;5039258;28;19905;-73
2021/12/16 06:13:59;;;;;;;;;;;6.80;96.60;;;;;;5039374;28;20311;-72
2021/12/16 06:27:26;;;;;;;;;;;6.80;96.60;;;;;;5039327;28;19919;-75
2021/12/16 06:29:51;;;;;;;;;;;6.90;96.60;;;;;;5039476;28;20351;-75
2021/12/16 06:32:17;;;;;;;;;;;6.90;96.60;;;;;;5039141;28;19927;-75
2021/12/16 06:34:44;;;;;;;;;;;6.90;96.60;;;;;;5039261;28;19909;-75
2021/12/16 06:37:10;;;;;;;;;;;6.90;96.60;;;;;;5027293;28;20360;-75
2021/12/16 06:39:36;;;;;;;;;;;6.90;96.70;;;;;;5038122;28;19914;-75
2021/12/16 06:42:05;;;;;;;;;;;6.90;96.60;;;;;;5038907;28;19983;-75
2021/12/16 06:44:37;;;;;;;;;;;6.90;96.60;;;;;;5036572;28;19905;-75
2021/12/16 06:47:08;;;;;;;;;;;6.90;96.60;;;;;;5039035;28;19905;-75
2021/12/16 06:49:36;;;;;;;;;;;7.00;96.70;;;;;;5039186;28;19905;-74
2021/12/16 06:52:05;;;;;;;;;;;6.90;96.70;;;;;;5038981;28;19905;-75
2021/12/16 06:54:50;;;;;;;;;;;7.00;96.70;;;;;;5038551;28;19909;-75
2021/12/16 06:59:54;;;;;;;;;;;7.00;96.70;;;;;;5038857;28;19947;-75
2021/12/16 07:02:44;;;;;;;;;;;7.00;96.70;;;;;;5038903;28;19905;-75
2021/12/16 07:05:12;;;;;;;;;;;7.00;96.70;;;;;;5037776;28;19906;-75
2021/12/16 07:07:38;;;;;;;;;;;7.00;96.70;;;;;;5038304;28;19905;-75
2021/12/16 07:10:05;;;;;;;;;;;7.00;96.70;;;;;;5038312;28;19905;-75
2021/12/16 07:12:38;;;;;;;;;;;7.00;96.70;;;;;;5038401;28;19913;-75
2021/12/16 07:15:08;;;;;;;;;;;7.00;96.70;;;;;;5038401;28;19909;-75
2021/12/16 07:17:34;;;;;;;;;;;7.00;96.70;;;;;;5037224;28;19912;-75
2021/12/16 07:20:00;;;;;;;;;;;7.00;96.70;;;;;;5038291;28;19905;-75
2021/12/16 07:22:26;;;;;;;;;;;7.00;96.70;;;;;;5038490;28;19913;-75
2021/12/16 07:24:51;;;;;;;;;;;7.00;96.70;;;;;;5038310;28;19905;-75
2021/12/16 07:27:17;;;;;;;;;;;7.10;96.70;;;;;;5038262;28;20368;-75
2021/12/16 07:29:43;;;;;;;;;;;7.10;96.70;;;;;;5037027;28;19909;-75
2021/12/16 07:32:08;;;;;;;;;;;7.10;96.70;;;;;;5038181;28;19905;-75
2021/12/16 07:34:34;;;;;;;;;;;7.10;96.70;;;;;;5038382;28;19916;-75
2021/12/16 07:37:04;;;;;;;;;;;7.10;96.70;;;;;;5027393;28;19913;-75
2021/12/16 07:39:38;;;;;;;;;;;7.10;96.70;;;;;;5036257;28;19909;-75
2021/12/16 07:42:04;;;;;;;;;;;7.10;96.70;;;;;;5038127;28;19917;-75
2021/12/16 07:44:32;;;;;;;;;;;7.10;96.70;;;;;;5036097;28;19909;-75
2021/12/16 07:47:00;;;;;;;;;;;7.10;96.70;;;;;;5038019;28;19905;-76
2021/12/16 07:49:27;;;;;;;;;;;7.10;96.70;;;;;;5025313;28;20007;-76
2021/12/16 07:51:53;;;;;;;;;;;7.10;96.70;;;;;;5038000;28;19905;-76
2021/12/16 07:54:20;;;;;;;;;;;7.20;96.70;;;;;;5062572;28;20380;-76
2021/12/16 07:56:48;;;;;;;;;;;7.20;96.70;;;;;;5031887;28;19959;-76
2021/12/16 07:59:14;;;;;;;;;;;7.20;96.70;;;;;;5036727;28;19943;-76
2021/12/16 08:01:40;;;;;;;;;;;7.20;96.70;;;;;;5037922;28;19909;-76
2021/12/16 08:04:10;;;;;;;;;;;7.20;96.70;;;;;;5037783;28;19913;-75
2021/12/16 08:06:36;;;;;;;;;;;7.20;96.70;;;;;;5037742;28;20406;-75
2021/12/16 08:09:07;;;;;;;;;;;7.20;96.70;;;;;;5038000;28;19905;-75
2021/12/16 08:11:34;;;;;;;;;;;7.20;96.70;;;;;;5032269;28;19991;-75
2021/12/16 08:14:02;;;;;;;;;;;7.30;96.70;;;;;;5037753;28;19909;-76
2021/12/16 08:16:28;;;;;;;;;;;7.30;96.70;;;;;;5037809;28;20058;-76
2021/12/16 08:18:53;;;;;;;;;;;7.30;96.70;;;;;;5038201;28;20039;-76
2021/12/16 08:21:20;;;;;;;;;;;7.30;96.70;;;;;;5037295;28;19987;-76
2021/12/16 08:23:46;;;;;;;;;;;7.30;96.70;;;;;;5037605;28;19905;-76
2021/12/16 08:26:15;;;;;;;;;;;7.30;96.70;;;;;;5037169;28;19912;-76
2021/12/16 08:28:42;;;;;;;;;;;7.30;96.70;;;;;;5037651;28;19933;-76
2021/12/16 08:31:08;;;;;;;;;;;7.30;96.70;;;;;;5037367;28;19905;-76
2021/12/16 08:33:33;;;;;;;;;;;7.30;96.70;;;;;;5037450;28;19923;-76
2021/12/16 08:35:59;;;;;;;;;;;7.30;96.70;;;;;;5034706;28;19927;-76
2021/12/16 08:38:26;;;;;;;;;;;7.30;96.70;;;;;;5029316;28;19905;-76
2021/12/16 08:40:52;;;;;;;;;;;7.30;96.70;;;;;;5040854;28;19917;-76
2021/12/16 08:43:18;;;;;;;;;;;7.30;96.70;;;;;;5041454;28;19905;-76
2021/12/16 08:45:45;;;;;;;;;;;7.40;96.70;;;;;;5039448;28;19905;-76
2021/12/16 08:48:11;;;;;;;;;;;7.40;96.70;;;;;;5039939;28;19912;-76
2021/12/16 08:50:38;;;;;;;;;;;7.40;96.70;;;;;;5041198;28;19905;-76
2021/12/16 08:53:05;;;;;;;;;;;7.40;96.70;;;;;;5041390;28;19996;-76
2021/12/16 08:55:32;;;;;;;;;;;7.40;96.60;;;;;;5041073;28;19951;-77
2021/12/16 08:57:58;;;;;;;;;;;7.40;96.70;;;;;;5040980;28;19954;-76
2021/12/16 09:00:26;;;;;;;;;;;7.40;96.60;;;;;;5040956;28;19905;-75
2021/12/16 09:02:52;;;;;;;;;;;7.50;96.60;;;;;;5041073;28;19988;-76
2021/12/16 09:05:18;;;;;;;;;;;7.40;96.60;;;;;;5040892;28;19951;-76
2021/12/16 09:07:46;;;;;;;;;;;7.50;96.60;;;;;;5041004;28;19905;-76
2021/12/16 09:10:13;;;;;;;;;;;7.50;96.60;;;;;;5040598;28;19905;-75
2021/12/16 09:12:53;;;;;;;;;;;7.50;96.50;;;;;;5040544;28;19905;-76
2021/12/16 09:15:20;;;;;;;;;;;7.50;96.50;;;;;;5027351;28;19996;-76
2021/12/16 09:17:45;;;;;;;;;;;7.50;96.40;;;;;;5040859;28;19909;-75
2021/12/16 09:20:11;;;;;;;;;;;7.50;96.40;;;;;;5040716;28;19905;-76
2021/12/16 09:22:37;;;;;;;;;;;7.50;96.40;;;;;;5040561;28;19955;-76
2021/12/16 09:25:03;;;;;;;;;;;7.50;96.30;;;;;;5040598;28;19905;-75
2021/12/16 09:27:29;;;;;;;;;;;7.50;96.20;;;;;;5040259;28;19905;-75
2021/12/16 09:29:54;;;;;;;;;;;7.50;96.10;;;;;;5040657;28;19963;-75
2021/12/16 09:32:23;;;;;;;;;;;7.50;96.30;;;;;;5040277;28;20294;-75
2021/12/16 09:34:48;;;;;;;;;;;7.60;95.90;;;;;;5040613;28;20360;-76
2021/12/16 09:37:14;;;;;;;;;;;7.50;95.70;;;;;;5027655;28;19936;-76
2021/12/16 09:39:40;;;;;;;;;;;7.50;95.70;;;;;;5039954;28;19905;-76
2021/12/16 09:42:07;;;;;;;;;;;7.60;95.60;;;;;;5040159;28;19963;-76
2021/12/16 09:44:33;;;;;;;;;;;7.60;95.50;;;;;;5038280;28;19991;-76
2021/12/16 09:47:00;;;;;;;;;;;7.60;95.30;;;;;;5040279;28;19928;-75
2021/12/16 09:49:26;;;;;;;;;;;7.60;95.20;;;;;;5026070;28;19916;-76
2021/12/16 09:51:54;;;;;;;;;;;7.60;95.20;;;;;;5040208;28;20003;-75
2021/12/16 09:54:23;;;;;;;;;;;7.70;95.30;;;;;;5039821;28;19916;-76
2021/12/16 09:56:49;;;;;;;;;;;7.70;95.30;;;;;;5039803;28;19948;-76
2021/12/16 09:59:16;;;;;;;;;;;7.80;95.40;;;;;;5040099;28;19905;-76
2021/12/16 10:01:44;;;;;;;;;;;7.80;95.30;;;;;;5040001;28;20303;-76
2021/12/16 10:04:13;;;;;;;;;;;7.80;95.00;;;;;;5039911;28;19905;-75
2021/12/16 10:06:39;;;;;;;;;;;7.90;95.00;;;;;;5040116;28;19976;-75
2021/12/16 10:09:07;;;;;;;;;;;7.90;95.00;;;;;;5039624;28;19905;-75
2021/12/16 10:11:34;;;;;;;;;;;7.90;94.90;;;;;;5039516;28;19967;-76
2021/12/16 10:19:10;;;;;;;;;;;8.00;94.50;;;;;;5039628;28;20330;-76
2021/12/16 10:21:37;;;;;;;;;;;8.00;94.30;;;;;;5038196;28;19909;-76
2021/12/16 10:24:03;;;;;;;;;;;8.10;94.10;;;;;;5039453;28;19955;-76
2021/12/16 10:26:28;;;;;;;;;;;8.10;94.10;;;;;;5039076;28;19905;-76
2021/12/16 10:28:56;;;;;;;;;;;8.10;94.20;;;;;;5039724;28;19960;-76
2021/12/16 10:31:29;;;;;;;;;;;8.10;94.20;;;;;;5039489;28;19931;-76
2021/12/16 10:33:59;;;;;;;;;;;8.20;94.20;;;;;;5037788;28;19909;-76
2021/12/16 10:36:31;;;;;;;;;;;8.20;94.10;;;;;;5033420;28;20027;-76
2021/12/16 10:39:04;;;;;;;;;;;8.20;93.80;;;;;;5033038;28;20043;-76
2021/12/16 10:41:32;;;;;;;;;;;8.30;93.60;;;;;;5038897;28;19924;-76
2021/12/16 10:44:06;;;;;;;;;;;8.30;93.70;;;;;;5037006;28;20008;-76
2021/12/16 10:46:34;;;;;;;;;;;8.30;93.60;;;;;;5038914;28;20379;-76
2021/12/16 10:49:03;;;;;;;;;;;8.30;93.70;;;;;;5038751;28;19927;-76
2021/12/16 10:51:34;;;;;;;;;;;8.40;93.70;;;;;;5038700;28;19927;-75
2021/12/16 10:54:19;;;;;;;;;;;8.40;93.70;;;;;;5038403;28;20265;-75
2021/12/16 10:56:47;;;;;;;;;;;8.40;93.50;;;;;;5038674;28;19905;-76
2021/12/16 10:59:18;;;;;;;;;;;8.50;93.40;;;;;;5039043;28;19913;-76
2021/12/16 11:01:53;;;;;;;;;;;8.50;93.20;;;;;;5038371;28;20004;-76
2021/12/16 11:04:45;;;;;;;;;;;8.50;93.10;;;;;;5037541;28;19971;-76
2021/12/16 11:07:25;;;;;;;;;;;8.60;92.80;;;;;;5026504;28;19905;-76
2021/12/16 11:09:52;;;;;;;;;;;8.60;92.60;;;;;;5038386;28;19905;-76
2021/12/16 11:12:18;;;;;;;;;;;8.70;92.30;;;;;;5038547;28;20391;-76
2021/12/16 11:14:46;;;;;;;;;;;8.70;92.00;;;;;;5038461;28;19909;-76
2021/12/16 11:17:14;;;;;;;;;;;8.70;91.80;;;;;;5037699;28;19909;-77
2021/12/16 11:19:54;;;;;;;;;;;8.80;91.90;;;;;;5037465;28;19909;-75
2021/12/16 11:22:23;;;;;;;;;;;8.80;91.80;;;;;;5038441;28;19912;-76
2021/12/16 11:24:50;;;;;;;;;;;8.80;91.50;;;;;;5038069;28;20364;-76
2021/12/16 11:27:25;;;;;;;;;;;8.80;91.40;;;;;;5037071;28;19915;-76
2021/12/16 11:29:50;;;;;;;;;;;8.90;91.40;;;;;;5025422;28;20473;-77
2021/12/16 11:32:37;;;;;;;;;;;8.90;91.30;;;;;;5038034;28;19909;-76
2021/12/16 11:35:21;;;;;;;;;;;8.90;91.30;;;;;;5038223;28;19995;-75
2021/12/16 11:37:48;;;;;;;;;;;8.90;91.40;;;;;;5024769;28;19905;-76
2021/12/16 11:40:14;;;;;;;;;;;9.00;91.50;;;;;;5037964;28;19913;-76
2021/12/16 11:42:40;;;;;;;;;;;9.10;91.50;;;;;;5037732;28;20431;-76
2021/12/16 11:45:05;;;;;;;;;;;9.20;91.50;;;;;;5036049;28;19970;-76
2021/12/16 11:47:31;;;;;;;;;;;9.40;91.40;;;;;;5038001;28;19905;-76
2021/12/16 11:50:01;;;;;;;;;;;9.50;91.20;;;;;;5037963;28;19905;-76
2021/12/16 11:52:31;;;;;;;;;;;9.60;90.90;;;;;;5037807;28;20276;-76
2021/12/16 11:54:59;;;;;;;;;;;9.70;91.10;;;;;;5037951;28;19915;-76
2021/12/16 11:57:33;;;;;;;;;;;9.90;91.20;;;;;;5037515;28;19909;-76
2021/12/16 12:00:00;;;;;;;;;;;10.00;90.80;;;;;;5037936;28;19920;-76
2021/12/16 12:02:26;;;;;;;;;;;10.30;90.70;;;;;;5038046;28;19905;-76
2021/12/16 12:04:53;;;;;;;;;;;10.70;90.90;;;;;;5037948;28;19905;-76
2021/12/16 12:07:19;;;;;;;;;;;11.10;90.10;;;;;;5037999;28;19905;-76
2021/12/16 12:09:48;;;;;;;;;;;11.30;90.00;;;;;;5037535;28;20326;-76
2021/12/16 12:12:14;;;;;;;;;;;11.70;88.90;;;;;;5036793;28;19905;-76
2021/12/16 12:14:41;;;;;;;;;;;12.10;88.00;;;;;;5036305;28;19916;-76
2021/12/16 12:17:19;;;;;;;;;;;12.40;87.90;;;;;;5036457;28;19912;-76
2021/12/16 12:19:47;;;;;;;;;;;12.60;86.40;;;;;;5037596;28;20280;-77
2021/12/16 12:22:13;;;;;;;;;;;12.80;83.80;;;;;;5037695;28;19905;-77
2021/12/16 12:24:44;;;;;;;;;;;12.90;83.00;;;;;;5036132;28;19911;-77
2021/12/16 12:27:13;;;;;;;;;;;12.90;82.60;;;;;;5036074;28;19905;-76
2021/12/16 12:29:42;;;;;;;;;;;12.80;82.00;;;;;;5037473;28;19905;-77
2021/12/16 12:32:08;;;;;;;;;;;12.80;80.70;;;;;;5036247;28;19905;-76
2021/12/16 12:34:35;;;;;;;;;;;12.70;81.40;;;;;;5037413;28;19909;-76
2021/12/16 12:37:04;;;;;;;;;;;12.60;81.30;;;;;;5026788;28;20011;-76
2021/12/16 12:39:31;;;;;;;;;;;12.60;81.50;;;;;;5034241;28;19909;-77
2021/12/16 12:41:57;;;;;;;;;;;12.40;81.50;;;;;;5037063;28;19924;-77
2021/12/16 12:44:23;;;;;;;;;;;12.40;81.50;;;;;;5033865;28;19905;-77
2021/12/16 12:46:49;;;;;;;;;;;12.30;79.90;;;;;;5037679;28;19928;-77
2021/12/16 12:49:16;;;;;;;;;;;12.20;80.30;;;;;;5036226;28;19963;-76
2021/12/16 12:51:48;;;;;;;;;;;12.10;81.20;;;;;;5036187;28;20016;-77
2021/12/16 12:54:14;;;;;;;;;;;12.10;82.40;;;;;;5035899;28;19920;-76
2021/12/16 12:56:39;;;;;;;;;;;12.00;82.60;;;;;;5035837;28;19905;-77
2021/12/16 12:59:11;;;;;;;;;;;12.00;82.40;;;;;;5037348;28;20012;-77
2021/12/16 13:01:47;;;;;;;;;;;11.90;81.60;;;;;;5037463;28;19905;-76
2021/12/16 13:04:14;;;;;;;;;;;11.90;81.70;;;;;;5037305;28;19905;-76
2021/12/16 13:06:52;;;;;;;;;;;11.90;82.30;;;;;;5037246;28;19959;-77
2021/12/16 13:09:21;;;;;;;;;;;11.80;82.60;;;;;;5037246;28;20376;-77
2021/12/16 13:11:46;;;;;;;;;;;11.80;81.70;;;;;;5036801;28;19905;-76
2021/12/16 13:14:20;;;;;;;;;;;11.80;82.60;;;;;;5037171;28;19983;-76
2021/12/16 13:25:44;;;;;;;;;;;11.90;82.60;;;;;;5026787;28;19912;-76
2021/12/16 13:28:02;;;;;;;;;;;11.80;82.80;;;;;;5040344;28;19924;-76
2021/12/16 13:30:32;;;;;;;;;;;11.90;83.20;;;;;;5039255;28;19904;-76
2021/12/16 13:33:27;;;;;;;;;;;11.90;83.30;;;;;;5040242;28;20438;-76
2021/12/16 13:36:02;;;;;;;;;;;12.00;82.80;;;;;;5039120;28;19909;-76
2021/12/16 13:38:36;;;;;;;;;;;12.10;82.90;;;;;;5030393;28;20409;-77
2021/12/16 13:41:14;;;;;;;;;;;12.10;82.70;;;;;;5039712;28;20323;-76
2021/12/16 13:43:54;;;;;;;;;;;12.10;82.50;;;;;;5039207;28;19910;-76
2021/12/16 13:46:40;;;;;;;;;;;12.10;82.00;;;;;;5028588;28;20395;-76
2021/12/16 14:03:09;;;;;;;;;;;11.40;81.00;;;;;;5040189;28;19912;-77
2021/12/16 14:06:08;;;;;;;;;;;11.30;82.00;;;;;;5040170;28;19908;-76
2021/12/16 14:08:29;;;;;;;;;;;11.30;82.00;;;;;;5039413;28;19905;-77
2021/12/16 14:10:59;;;;;;;;;;;11.20;81.60;;;;;;5038061;28;19905;-76
2021/12/16 14:16:54;;;;;;;;;;;11.10;81.80;;;;;;5039672;28;19975;-76
2021/12/16 14:41:14;;;;;;;;;;;10.70;82.30;;;;;;5038765;28;19924;-76
2021/12/16 14:44:19;;;;;;;;;;;10.60;81.50;;;;;;5037944;28;20376;-76
2021/12/16 14:46:27;;;;;;;;;;;10.60;82.00;;;;;;5027786;28;19908;-76
2021/12/16 14:48:52;;;;;;;;;;;10.50;82.90;;;;;;5034916;28;19948;-77
2021/12/16 14:51:18;;;;;;;;;;;10.50;83.30;;;;;;5039377;28;19912;-77
2021/12/16 14:53:46;;;;;;;;;;;10.50;84.00;;;;;;5038855;28;20008;-77
2021/12/16 14:56:19;;;;;;;;;;;10.40;83.60;;;;;;5038838;28;19905;-76
2021/12/16 14:58:50;;;;;;;;;;;10.40;83.80;;;;;;5038919;28;20290;-76
2021/12/16 15:01:20;;;;;;;;;;;10.40;84.00;;;;;;5039066;28;19905;-76
2021/12/16 15:03:47;;;;;;;;;;;10.30;83.60;;;;;;5038676;28;19905;-77
2021/12/16 15:06:16;;;;;;;;;;;10.30;83.80;;;;;;5038776;28;19995;-76
2021/12/16 15:08:49;;;;;;;;;;;10.30;84.10;;;;;;5037128;28;19905;-76
2021/12/16 15:11:25;;;;;;;;;;;10.30;83.60;;;;;;5038286;28;19905;-77
2021/12/16 15:13:56;;;;;;;;;;;10.30;83.90;;;;;;5038813;28;20008;-77
2021/12/16 15:38:41;;;;;;;;;;;10.10;85.70;;;;;;5026855;28;20364;-77
2021/12/16 15:43:56;;;;;;;;;;;10.00;85.60;;;;;;5036297;28;19912;-76
2021/12/16 15:46:22;;;;;;;;;;;10.00;86.20;;;;;;5037973;28;19905;-76
2021/12/16 15:48:49;;;;;;;;;;;10.00;86.70;;;;;;5037349;28;19905;-76
2021/12/16 15:51:15;;;;;;;;;;;10.00;86.70;;;;;;5038185;28;20387;-77
2021/12/16 15:53:43;;;;;;;;;;;9.90;86.30;;;;;;5037776;28;20059;-76
2021/12/16 15:56:10;;;;;;;;;;;10.00;85.70;;;;;;5037643;28;19905;-77
2021/12/16 15:58:37;;;;;;;;;;;9.90;85.40;;;;;;5037776;28;20364;-76
2021/12/16 16:01:06;;;;;;;;;;;9.90;86.10;;;;;;5038107;28;19911;-76
2021/12/16 16:03:32;;;;;;;;;;;9.90;86.40;;;;;;5037830;28;19905;-76
2021/12/16 16:06:00;;;;;;;;;;;9.90;86.90;;;;;;5038016;28;19995;-76
2021/12/16 16:08:27;;;;;;;;;;;9.80;87.10;;;;;;5037653;28;19938;-76
2021/12/16 16:10:58;;;;;;;;;;;9.80;87.10;;;;;;5037424;28;19913;-77
2021/12/16 16:13:26;;;;;;;;;;;9.80;86.80;;;;;;5037530;28;19905;-77
2021/12/16 16:15:54;;;;;;;;;;;9.80;87.20;;;;;;5037882;28;20006;-76
2021/12/16 16:21:05;;;;;;;;;;;9.80;87.60;;;;;;5037592;28;19916;-77
2021/12/16 16:23:33;;;;;;;;;;;9.80;87.80;;;;;;5037788;28;20011;-76
2021/12/16 16:26:02;;;;;;;;;;;9.80;87.60;;;;;;5037180;28;19931;-77
2021/12/16 16:28:28;;;;;;;;;;;9.80;87.30;;;;;;5037789;28;20360;-77
2021/12/16 16:30:54;;;;;;;;;;;9.80;87.70;;;;;;5037540;28;19928;-76
2021/12/16 16:33:21;;;;;;;;;;;9.70;87.60;;;;;;5037542;28;19905;-76
2021/12/16 16:35:53;;;;;;;;;;;9.70;87.80;;;;;;5036725;28;19909;-76
2021/12/16 16:38:24;;;;;;;;;;;9.70;87.80;;;;;;5026228;28;19935;-76
2021/12/16 16:40:51;;;;;;;;;;;9.70;88.00;;;;;;5036995;28;20019;-76
2021/12/16 16:43:18;;;;;;;;;;;9.70;88.30;;;;;;5037631;28;19916;-76
2021/12/16 16:45:44;;;;;;;;;;;9.70;88.30;;;;;;5035519;28;19983;-76
2021/12/16 16:48:42;;;;;;;;;;;9.70;88.10;;;;;;5037371;28;19909;-77
2021/12/16 16:51:10;;;;;;;;;;;9.70;87.80;;;;;;5025606;28;19908;-77
2021/12/16 16:53:43;;;;;;;;;;;9.70;87.70;;;;;;5035999;28;20354;-76
2021/12/16 16:56:08;;;;;;;;;;;9.70;87.60;;;;;;5037271;28;19913;-77
2021/12/16 16:58:34;;;;;;;;;;;9.60;87.40;;;;;;5038194;28;19948;-77
2021/12/16 17:01:02;;;;;;;;;;;9.60;87.40;;;;;;5041322;28;19905;-76
2021/12/16 17:03:27;;;;;;;;;;;9.70;87.70;;;;;;5040996;28;19905;-76
2021/12/16 17:05:57;;;;;;;;;;;9.60;87.90;;;;;;5041156;28;19905;-78
2021/12/16 17:08:24;;;;;;;;;;;9.60;87.40;;;;;;5040789;28;19911;-77
2021/12/16 17:11:02;;;;;;;;;;;9.60;87.50;;;;;;5038887;28;20292;-78
2021/12/16 17:13:53;;;;;;;;;;;9.60;87.60;;;;;;5044561;28;19911;-77
2021/12/16 17:19:14;;;;;;;;;;;9.60;88.20;;;;;;5030204;28;19912;-77
2021/12/16 17:21:41;;;;;;;;;;;9.60;88.30;;;;;;5040709;28;19912;-77
2021/12/16 17:24:09;;;;;;;;;;;9.60;88.40;;;;;;5040645;28;19905;-75
2021/12/16 17:26:38;;;;;;;;;;;9.60;88.60;;;;;;5040197;28;19920;-79
2021/12/16 17:29:08;;;;;;;;;;;9.60;88.60;;;;;;5041549;28;19931;-76
2021/12/16 17:31:45;;;;;;;;;;;9.60;88.50;;;;;;5046679;28;19931;-76
2021/12/16 17:34:16;;;;;;;;;;;9.60;88.40;;;;;;5061663;28;19932;-76
2021/12/16 17:36:48;;;;;;;;;;;9.60;88.50;;;;;;5039314;28;19909;-75
2021/12/16 17:39:15;;;;;;;;;;;9.60;88.50;;;;;;5040463;28;19905;-76
2021/12/16 17:41:40;;;;;;;;;;;9.60;88.50;;;;;;5040007;28;19984;-75
2021/12/16 17:44:11;;;;;;;;;;;9.60;88.70;;;;;;5035570;28;20390;-75
2021/12/16 17:46:36;;;;;;;;;;;9.60;88.90;;;;;;5038303;28;20394;-75
2021/12/16 17:49:04;;;;;;;;;;;9.60;88.90;;;;;;5040361;28;19904;-75
2021/12/16 17:51:30;;;;;;;;;;;9.60;88.50;;;;;;5040116;28;19916;-75
2021/12/16 17:53:57;;;;;;;;;;;9.60;88.70;;;;;;5040083;28;19912;-76
2021/12/16 17:56:23;;;;;;;;;;;9.60;88.60;;;;;;5039706;28;19912;-75
2021/12/16 17:58:51;;;;;;;;;;;9.60;89.60;;;;;;5040285;28;19999;-76
2021/12/16 18:01:20;;;;;;;;;;;9.60;89.20;;;;;;5039608;28;19912;-76
2021/12/16 18:03:50;;;;;;;;;;;9.60;88.90;;;;;;5040043;28;20003;-76
2021/12/16 18:06:18;;;;;;;;;;;9.60;88.90;;;;;;5039991;28;19955;-75
2021/12/16 18:08:46;;;;;;;;;;;9.60;88.90;;;;;;5041331;28;19912;-75
2021/12/16 18:11:17;;;;;;;;;;;9.60;88.90;;;;;;5036626;28;19905;-75
2021/12/16 18:13:45;;;;;;;;;;;9.60;88.70;;;;;;5039749;28;19909;-74
2021/12/16 18:16:18;;;;;;;;;;;9.60;88.70;;;;;;5039558;28;19920;-76
2021/12/16 18:18:44;;;;;;;;;;;9.60;88.90;;;;;;5039856;28;19905;-76
2021/12/16 18:21:10;;;;;;;;;;;9.60;88.60;;;;;;5039518;28;20411;-76
2021/12/16 18:23:36;;;;;;;;;;;9.60;88.50;;;;;;5039598;28;19963;-76
2021/12/16 18:26:03;;;;;;;;;;;9.60;88.70;;;;;;5039326;28;19908;-76
2021/12/16 18:28:29;;;;;;;;;;;9.60;88.80;;;;;;5039610;28;19905;-76